Terminal Aerodrome Forecast
Issued by NWS Austin/San Antonio, TX

Home | Current Version | Previous Version | Text Only | Print | Product List | Glossary On
Versions: 1 2 3 4 5 6 7 8 9 10 11 12 13 14 15 16 17 18 19 20 21 22 23 24 25 26 27 28 29 30
000
FTUS44 KEWX 222300 RRA
TAFAUS
TAF
KAUS 222342Z 2300/2406 15010KT P6SM BKN006 OVC015
      TEMPO 2300/2302 VRB20G30KT 2SM +TSRA BKN008CB
     FM230200 16010KT P6SM VCTS SCT020CB OVC030
      TEMPO 2302/2306 VRB15G25KT 3SM TSRA BKN008CB
     FM230600 24005KT P6SM FEW040 BKN150
     FM231600 24015KT P6SM SCT250=

USA.gov is the U.S. government's official web portal to all federal, state and local government web resources and services.